CheckWX is a tool to help pilots better visualize weather data.  It is not intended as a substitute for an official pre-flight weather briefing.

21:04:23 UTC

KEUL METAR
Caldwell Industrial Airport
Caldwell, Idaho, USA
Current

8 mins ago

KEUL 232056Z AUTO 30007KT 10SM CLR 21/04 A2975 RMK AO2 SLP066 T02110039 58017
Observed
May-23 @ 20:56 UTC
Wind
  • 300° at 7 KTS
Visibility
10 SM
Flight Rules
VFR
Cloud Levels
  • Clear skies
Temperature
21°C / 70°F
Dewpoint
C / 39°F
Humidity
33%
Altimeter
29.75" Hg
Pressure
1007.42 hPa
Previous

1 hour ago

KEUL 231956Z AUTO 24011KT 10SM FEW075 20/05 A2978 RMK AO2 SLP075 T02000050
Observed
May-23 @ 19:56 UTC
Wind
  • 240° at 11 KTS
Visibility
10 SM
Flight Rules
VFR
Cloud Levels
  • Few at 7,500' AGL
Temperature
20°C / 68°F
Dewpoint
C / 41°F
Humidity
38%
Altimeter
29.78" Hg
Pressure
1008.42 hPa
Previous

2 hours ago

KEUL 231856Z AUTO 26006KT 10SM CLR 19/04 A2979 RMK AO2 SLP081 T01940044
Observed
May-23 @ 18:56 UTC
Wind
  • 260° at 6 KTS
Visibility
10 SM
Flight Rules
VFR
Cloud Levels
  • Clear skies
Temperature
19°C / 66°F
Dewpoint
C / 39°F
Humidity
37%
Altimeter
29.79" Hg
Pressure
1008.82 hPa